Grahamville, Kentucky
Current Conditions -  °F | °C
As of 12:53 PM on Sunday 21 Dec 2014 (Local Time) from KPAH Reporting Station
Clear Clear  
Wind Chill: 44°   Ceiling: Unl
Heat Index: 46°   Visibility: 10mi
Dew Point: 31°   Wind: 5mph
Humidity: 56%   Direction: NA
Pressure: 30.14"   Gusts: NA
Location:  37.0919°N, 88.7716°W
Report Text: KPAH 211853Z VRB04KT 10SM CLR 08/M01 A3014 RMK AO2 SLP207 T00781006
Loading
Personal Weather Stations






























Interactive Weather Map New forecast layout! Learn more

10-Day Weather Forecast

Advertisements
Track Severe Weather on mobile